Time;durP1;ratioP1;P1;durP2;ratioP2;P2;SDS_P1;SDS_P2;PMS_P1;PMS_P2;Temp;Humidity;BMP_temperature;BMP_pressure;BME280_temperature;BME280_humidity;BME280_pressure;Samples;Min_cycle;Max_cycle;Signal;HPM_P1;HPM_P2
2022/03/19 00:00:19;;;;;;;25.37;17.67;;;;;;;;;;5049500;28;20429;-74
2022/03/19 00:02:47;;;;;;;30.10;21.37;;;;;;;;;;5047531;28;21093;-74
2022/03/19 00:05:13;;;;;;;33.60;23.70;;;;;;;;;;5049130;28;20434;-74
2022/03/19 00:07:42;;;;;;;30.53;20.53;;;;;;;;;;5041498;28;20562;-74
2022/03/19 00:10:09;;;;;;;33.23;22.00;;;;;;;;;;5042535;28;20450;-75
2022/03/19 00:12:39;;;;;;;29.77;20.10;;;;;;;;;;5045486;28;20446;-74
2022/03/19 00:15:09;;;;;;;28.43;20.53;;;;;;;;;;5049122;28;20437;-74
2022/03/19 00:17:34;;;;;;;32.70;21.53;;;;;;;;;;5043552;28;20446;-74
2022/03/19 00:20:01;;;;;;;27.47;19.90;;;;;;;;;;5044671;28;20445;-74
2022/03/19 00:22:27;;;;;;;22.57;17.80;;;;;;;;;;5047139;28;20496;-74
2022/03/19 00:24:53;;;;;;;28.37;18.20;;;;;;;;;;5048853;28;20430;-74
2022/03/19 00:27:19;;;;;;;30.03;20.13;;;;;;;;;;5046181;28;20941;-74
2022/03/19 00:29:45;;;;;;;27.37;20.07;;;;;;;;;;5039467;28;20442;-74
2022/03/19 00:32:11;;;;;;;27.20;19.37;;;;;;;;;;5044254;28;20859;-74
2022/03/19 00:34:37;;;;;;;24.90;19.40;;;;;;;;;;5048304;28;20466;-74
2022/03/19 00:37:03;;;;;;;25.00;18.70;;;;;;;;;;5049727;28;21255;-74
2022/03/19 00:39:29;;;;;;;28.57;20.80;;;;;;;;;;5043332;28;20485;-74
2022/03/19 00:41:55;;;;;;;28.60;21.10;;;;;;;;;;5050002;28;20462;-74
2022/03/19 00:44:21;;;;;;;28.03;19.80;;;;;;;;;;5050673;28;20519;-74
2022/03/19 00:46:48;;;;;;;30.13;20.47;;;;;;;;;;5048216;28;20552;-74
2022/03/19 00:49:14;;;;;;;26.27;19.40;;;;;;;;;;5046539;28;21013;-74
2022/03/19 00:51:40;;;;;;;28.50;20.80;;;;;;;;;;5052049;28;20438;-74
2022/03/19 00:54:06;;;;;;;31.17;19.37;;;;;;;;;;5050743;28;20461;-74
2022/03/19 00:56:32;;;;;;;26.70;18.47;;;;;;;;;;5049407;28;20434;-74
2022/03/19 00:58:58;;;;;;;29.57;21.30;;;;;;;;;;5044590;28;20446;-74
2022/03/19 01:01:24;;;;;;;28.43;19.70;;;;;;;;;;5050690;28;20437;-74
2022/03/19 01:03:50;;;;;;;26.60;18.97;;;;;;;;;;5050004;28;20824;-74
2022/03/19 01:06:16;;;;;;;24.70;19.73;;;;;;;;;;5052200;28;21152;-74
2022/03/19 01:08:42;;;;;;;25.70;19.20;;;;;;;;;;5043000;28;20993;-75
2022/03/19 01:11:08;;;;;;;23.07;18.40;;;;;;;;;;5051023;28;20430;-74
2022/03/19 01:13:34;;;;;;;24.57;18.80;;;;;;;;;;5044067;28;20507;-74
2022/03/19 01:16:02;;;;;;;31.50;19.43;;;;;;;;;;5052163;28;20431;-74
2022/03/19 01:18:28;;;;;;;28.20;17.23;;;;;;;;;;5051112;28;20438;-74
2022/03/19 01:20:56;;;;;;;30.13;18.27;;;;;;;;;;5050046;28;20433;-74
2022/03/19 01:23:22;;;;;;;26.53;18.47;;;;;;;;;;5041754;28;20458;-74
2022/03/19 01:25:48;;;;;;;24.80;17.30;;;;;;;;;;5048462;28;20529;-74
2022/03/19 01:28:14;;;;;;;27.43;19.00;;;;;;;;;;5048850;28;20572;-74
2022/03/19 01:30:40;;;;;;;23.90;19.30;;;;;;;;;;5050287;28;20568;-74
2022/03/19 01:33:06;;;;;;;26.30;17.70;;;;;;;;;;5043772;28;20526;-74
2022/03/19 01:35:32;;;;;;;26.50;18.17;;;;;;;;;;5050487;28;20455;-74
2022/03/19 01:37:58;;;;;;;25.90;18.40;;;;;;;;;;5044666;28;20451;-74
2022/03/19 01:40:24;;;;;;;26.63;18.63;;;;;;;;;;5051885;28;20537;-74
2022/03/19 01:42:51;;;;;;;23.80;18.80;;;;;;;;;;5051480;28;20473;-73
2022/03/19 01:45:18;;;;;;;25.13;18.20;;;;;;;;;;5051566;28;20470;-74
2022/03/19 01:47:44;;;;;;;25.30;18.20;;;;;;;;;;5050259;28;20462;-74
2022/03/19 01:50:12;;;;;;;26.83;19.00;;;;;;;;;;5044501;28;20457;-74
2022/03/19 01:52:38;;;;;;;39.23;18.77;;;;;;;;;;5047309;28;20551;-74
2022/03/19 01:55:05;;;;;;;24.23;17.43;;;;;;;;;;5044739;28;20450;-74
2022/03/19 01:57:34;;;;;;;35.07;18.80;;;;;;;;;;5050148;28;20452;-74
2022/03/19 02:00:00;;;;;;;30.23;18.97;;;;;;;;;;5050629;28;20429;-74
2022/03/19 02:02:27;;;;;;;28.33;19.70;;;;;;;;;;5049766;28;20450;-74
2022/03/19 02:04:53;;;;;;;25.67;20.30;;;;;;;;;;5049276;28;20812;-73
2022/03/19 02:07:19;;;;;;;26.73;18.93;;;;;;;;;;5045199;28;20960;-74
2022/03/19 02:09:46;;;;;;;26.30;18.50;;;;;;;;;;5048824;28;20470;-74
2022/03/19 02:12:12;;;;;;;27.37;19.10;;;;;;;;;;5048518;28;20431;-74
2022/03/19 02:14:39;;;;;;;29.73;21.00;;;;;;;;;;5048342;28;20430;-74
2022/03/19 02:17:05;;;;;;;27.23;20.30;;;;;;;;;;5045351;28;20435;-75
2022/03/19 02:19:32;;;;;;;32.80;20.40;;;;;;;;;;5048203;28;20439;-74
2022/03/19 02:21:58;;;;;;;28.60;20.50;;;;;;;;;;5047778;28;20978;-74
2022/03/19 02:27:08;;;;;;;28.60;19.73;;;;;;;;;;5040924;28;20480;-74
2022/03/19 02:29:34;;;;;;;27.53;19.00;;;;;;;;;;5050102;28;20450;-75
2022/03/19 02:32:01;;;;;;;29.10;19.93;;;;;;;;;;5050085;28;20415;-74
2022/03/19 02:34:27;;;;;;;31.40;20.87;;;;;;;;;;5048024;28;20521;-74
2022/03/19 02:36:54;;;;;;;25.03;19.53;;;;;;;;;;5041393;28;20818;-74
2022/03/19 02:39:21;;;;;;;29.30;18.70;;;;;;;;;;5051248;28;20418;-74
2022/03/19 02:41:48;;;;;;;28.53;18.90;;;;;;;;;;5048967;28;20434;-74
2022/03/19 02:44:16;;;;;;;28.40;20.70;;;;;;;;;;5045735;28;20453;-74
2022/03/19 02:46:52;;;;;;;27.90;18.30;;;;;;;;;;5045513;28;20478;-74
2022/03/19 02:49:19;;;;;;;26.00;19.03;;;;;;;;;;5049938;28;20486;-74
2022/03/19 02:51:45;;;;;;;34.57;20.50;;;;;;;;;;5046712;28;20460;-74
2022/03/19 02:54:12;;;;;;;29.03;19.40;;;;;;;;;;5047497;28;20447;-74
2022/03/19 02:56:40;;;;;;;30.37;19.17;;;;;;;;;;5042571;28;20435;-74
2022/03/19 02:59:07;;;;;;;25.50;19.07;;;;;;;;;;5050121;28;20426;-74
2022/03/19 03:01:33;;;;;;;28.57;19.77;;;;;;;;;;5046374;28;20431;-74
2022/03/19 03:03:59;;;;;;;29.77;20.70;;;;;;;;;;5048743;28;20442;-74
2022/03/19 03:06:25;;;;;;;30.07;19.43;;;;;;;;;;5037722;28;20465;-74
2022/03/19 03:08:51;;;;;;;30.87;21.87;;;;;;;;;;5050263;28;20500;-74
2022/03/19 03:11:17;;;;;;;30.40;20.87;;;;;;;;;;5048830;28;20456;-74
2022/03/19 03:13:44;;;;;;;33.80;22.00;;;;;;;;;;5048368;28;20437;-74
2022/03/19 03:16:10;;;;;;;30.67;21.10;;;;;;;;;;5044037;28;20438;-74
2022/03/19 03:18:36;;;;;;;32.97;21.13;;;;;;;;;;5046901;28;20601;-74
2022/03/19 03:21:02;;;;;;;38.60;22.80;;;;;;;;;;5049135;28;20458;-74
2022/03/19 03:23:28;;;;;;;30.97;22.30;;;;;;;;;;5049355;28;20917;-74
2022/03/19 03:25:54;;;;;;;34.07;23.50;;;;;;;;;;5044861;28;20596;-74
2022/03/19 03:28:20;;;;;;;33.47;23.43;;;;;;;;;;5045510;28;21012;-74
2022/03/19 03:30:46;;;;;;;36.83;23.67;;;;;;;;;;5049475;28;20815;-74
2022/03/19 03:33:12;;;;;;;31.57;22.70;;;;;;;;;;5049465;28;20449;-74
2022/03/19 03:35:38;;;;;;;32.43;22.43;;;;;;;;;;5044502;28;20442;-75
2022/03/19 03:38:04;;;;;;;38.50;22.90;;;;;;;;;;5044502;28;20541;-74
2022/03/19 03:40:30;;;;;;;40.83;24.20;;;;;;;;;;5049478;28;20474;-74
2022/03/19 03:42:56;;;;;;;38.30;23.90;;;;;;;;;;5049307;28;20934;-74
2022/03/19 03:45:22;;;;;;;27.93;19.40;;;;;;;;;;5049228;28;20474;-74
2022/03/19 03:47:49;;;;;;;35.70;24.30;;;;;;;;;;5037920;28;20474;-74
2022/03/19 03:50:16;;;;;;;39.63;24.70;;;;;;;;;;5044512;28;20508;-74
2022/03/19 03:52:42;;;;;;;37.60;25.00;;;;;;;;;;5049394;28;20422;-74
2022/03/19 03:55:08;;;;;;;39.97;25.03;;;;;;;;;;5049388;28;20437;-74
2022/03/19 03:57:35;;;;;;;37.90;22.83;;;;;;;;;;5040019;28;20442;-74
2022/03/19 04:00:01;;;;;;;33.97;22.97;;;;;;;;;;5047838;28;20446;-74
2022/03/19 04:02:27;;;;;;;37.07;24.63;;;;;;;;;;5049183;28;20970;-74
2022/03/19 04:04:53;;;;;;;34.27;23.40;;;;;;;;;;5046299;28;20435;-74
2022/03/19 04:07:19;;;;;;;35.97;26.30;;;;;;;;;;5043756;28;20515;-74
2022/03/19 04:09:45;;;;;;;39.27;26.50;;;;;;;;;;5041003;28;20450;-74
2022/03/19 04:12:11;;;;;;;40.80;26.13;;;;;;;;;;5047536;28;21033;-74
2022/03/19 04:14:37;;;;;;;39.80;25.20;;;;;;;;;;5048198;28;20517;-74
2022/03/19 04:17:04;;;;;;;46.43;25.17;;;;;;;;;;5045507;28;20884;-74
2022/03/19 04:19:30;;;;;;;38.70;24.50;;;;;;;;;;5041385;28;20942;-74
2022/03/19 04:21:56;;;;;;;37.30;24.37;;;;;;;;;;5049223;28;20473;-75
2022/03/19 04:24:25;;;;;;;33.87;22.47;;;;;;;;;;5047381;28;20459;-74
2022/03/19 04:26:51;;;;;;;38.03;25.20;;;;;;;;;;5048540;28;20529;-74
2022/03/19 04:29:17;;;;;;;38.13;25.43;;;;;;;;;;5037968;28;20559;-74
2022/03/19 04:31:43;;;;;;;35.83;24.40;;;;;;;;;;5044842;28;20441;-74
2022/03/19 04:34:09;;;;;;;37.37;25.90;;;;;;;;;;5047097;28;20938;-74
2022/03/19 04:36:38;;;;;;;42.53;25.93;;;;;;;;;;5048486;28;20505;-74
2022/03/19 04:39:05;;;;;;;38.67;26.57;;;;;;;;;;5040410;28;20455;-74
2022/03/19 04:41:32;;;;;;;42.10;26.03;;;;;;;;;;5046573;28;20442;-74
2022/03/19 04:43:58;;;;;;;43.40;27.13;;;;;;;;;;5046832;28;20449;-74
2022/03/19 04:46:24;;;;;;;36.83;27.33;;;;;;;;;;5047349;28;20981;-74
2022/03/19 04:48:50;;;;;;;39.90;26.60;;;;;;;;;;5041980;28;20494;-74
2022/03/19 04:51:20;;;;;;;38.43;25.00;;;;;;;;;;5043524;28;20930;-74
2022/03/19 04:53:56;;;;;;;38.93;27.63;;;;;;;;;;5047619;28;20873;-74
2022/03/19 04:56:25;;;;;;;35.93;23.90;;;;;;;;;;5047057;28;20460;-74
2022/03/19 04:58:51;;;;;;;40.20;27.87;;;;;;;;;;5042899;28;20935;-74
2022/03/19 05:01:18;;;;;;;38.43;26.90;;;;;;;;;;5040839;28;20795;-74
2022/03/19 05:03:44;;;;;;;39.40;27.07;;;;;;;;;;5047774;28;20442;-74
2022/03/19 05:06:10;;;;;;;40.03;25.50;;;;;;;;;;5048243;28;20435;-74
2022/03/19 05:08:36;;;;;;;38.10;27.43;;;;;;;;;;5046199;28;20989;-74
2022/03/19 05:11:16;;;;;;;34.30;25.77;;;;;;;;;;5040010;28;20441;-74
2022/03/19 05:13:48;;;;;;;37.93;23.37;;;;;;;;;;5046683;28;20426;-74
2022/03/19 05:16:14;;;;;;;41.53;24.23;;;;;;;;;;5045345;28;20438;-74
2022/03/19 05:18:40;;;;;;;42.20;25.60;;;;;;;;;;5047994;28;20442;-74
2022/03/19 05:21:06;;;;;;;41.30;27.80;;;;;;;;;;5038751;28;20465;-74
2022/03/19 05:23:34;;;;;;;44.57;26.87;;;;;;;;;;5077755;28;20450;-74
2022/03/19 05:26:00;;;;;;;48.87;26.97;;;;;;;;;;5050904;28;20952;-74
2022/03/19 05:28:26;;;;;;;55.07;26.17;;;;;;;;;;5050900;28;20484;-74
2022/03/19 05:30:53;;;;;;;39.47;25.90;;;;;;;;;;5044990;28;20438;-74
2022/03/19 05:33:19;;;;;;;44.50;28.40;;;;;;;;;;5049108;28;20442;-74
2022/03/19 05:35:45;;;;;;;36.03;26.43;;;;;;;;;;5051689;28;20411;-74
2022/03/19 05:38:12;;;;;;;43.97;25.97;;;;;;;;;;5050770;28;20598;-74
2022/03/19 05:40:38;;;;;;;46.67;28.60;;;;;;;;;;5045647;28;20431;-74
2022/03/19 05:43:04;;;;;;;42.00;27.83;;;;;;;;;;5042431;28;20954;-74
2022/03/19 05:45:30;;;;;;;39.40;25.93;;;;;;;;;;5050990;28;20477;-74
2022/03/19 05:47:56;;;;;;;40.47;25.93;;;;;;;;;;5051752;28;20465;-74
2022/03/19 05:50:22;;;;;;;40.00;26.70;;;;;;;;;;5047484;28;20446;-74
2022/03/19 05:52:48;;;;;;;39.20;26.20;;;;;;;;;;5043987;28;20438;-74
2022/03/19 05:55:15;;;;;;;41.10;27.73;;;;;;;;;;5051631;28;20523;-74
2022/03/19 05:57:41;;;;;;;41.17;27.27;;;;;;;;;;5051292;28;20434;-74
2022/03/19 06:00:11;;;;;;;46.43;28.60;;;;;;;;;;5049395;28;20469;-74
2022/03/19 06:02:44;;;;;;;42.93;27.47;;;;;;;;;;5043906;28;20835;-74
2022/03/19 06:05:10;;;;;;;43.03;27.63;;;;;;;;;;5048046;28;20491;-74
2022/03/19 06:07:36;;;;;;;44.90;28.40;;;;;;;;;;5049787;28;21056;-74
2022/03/19 06:10:02;;;;;;;43.60;26.47;;;;;;;;;;5049328;28;20533;-74
2022/03/19 06:12:28;;;;;;;41.20;28.63;;;;;;;;;;5044871;28;20434;-74
2022/03/19 06:14:54;;;;;;;40.30;25.73;;;;;;;;;;5045984;28;20464;-74
2022/03/19 06:17:21;;;;;;;41.10;28.50;;;;;;;;;;5050190;28;20969;-74
2022/03/19 06:19:47;;;;;;;43.30;27.37;;;;;;;;;;5049950;28;20775;-74
2022/03/19 06:22:13;;;;;;;41.93;27.03;;;;;;;;;;5042802;28;20852;-74
2022/03/19 06:24:39;;;;;;;41.17;27.90;;;;;;;;;;5045459;28;20449;-74
2022/03/19 06:27:05;;;;;;;42.60;27.60;;;;;;;;;;5046331;28;20786;-74
2022/03/19 06:29:31;;;;;;;48.60;29.00;;;;;;;;;;5037774;28;20482;-74
2022/03/19 06:31:58;;;;;;;40.93;26.87;;;;;;;;;;5047978;28;20481;-75
2022/03/19 06:34:24;;;;;;;44.60;26.47;;;;;;;;;;5049117;28;20441;-74
2022/03/19 06:39:35;;;;;;;43.00;26.67;;;;;;;;;;5040783;28;20539;-74
2022/03/19 06:42:01;;;;;;;46.27;28.80;;;;;;;;;;5050628;28;20430;-74
2022/03/19 06:44:27;;;;;;;45.37;27.00;;;;;;;;;;5049780;28;20426;-74
2022/03/19 06:46:53;;;;;;;42.03;27.60;;;;;;;;;;5048699;28;20501;-74
2022/03/19 06:49:19;;;;;;;40.30;26.43;;;;;;;;;;5040832;28;20882;-74
2022/03/19 06:51:45;;;;;;;44.67;28.47;;;;;;;;;;5049028;28;20433;-74
2022/03/19 06:54:10;;;;;;;50.97;32.10;;;;;;;;;;5045532;28;20867;-74
2022/03/19 06:56:36;;;;;;;44.33;27.77;;;;;;;;;;5044052;28;20450;-74
2022/03/19 06:59:02;;;;;;;44.97;27.90;;;;;;;;;;5048629;28;20537;-74
2022/03/19 07:01:28;;;;;;;46.00;30.43;;;;;;;;;;5045917;28;20419;-74
2022/03/19 07:03:54;;;;;;;39.37;27.10;;;;;;;;;;5046817;28;20458;-74
2022/03/19 07:06:20;;;;;;;45.30;27.67;;;;;;;;;;5046869;28;20442;-75
2022/03/19 07:08:46;;;;;;;40.37;27.83;;;;;;;;;;5048464;28;20482;-75
2022/03/19 07:11:13;;;;;;;42.63;27.10;;;;;;;;;;5049528;28;20433;-75
2022/03/19 07:13:39;;;;;;;46.17;29.23;;;;;;;;;;5045867;28;20487;-73
2022/03/19 07:16:06;;;;;;;42.13;30.63;;;;;;;;;;5041557;28;20517;-75
2022/03/19 07:18:33;;;;;;;40.53;28.43;;;;;;;;;;5047359;28;20562;-75
2022/03/19 07:20:58;;;;;;;44.57;30.07;;;;;;;;;;5047852;28;20430;-75
2022/03/19 07:23:24;;;;;;;40.27;26.57;;;;;;;;;;5040510;28;20442;-75
2022/03/19 07:25:50;;;;;;;38.37;26.80;;;;;;;;;;5039303;28;20446;-75
2022/03/19 07:28:18;;;;;;;48.63;27.10;;;;;;;;;;5045407;28;20478;-75
2022/03/19 07:30:44;;;;;;;45.37;29.13;;;;;;;;;;5049274;28;20919;-75
2022/03/19 07:33:11;;;;;;;45.63;25.83;;;;;;;;;;5048754;28;20537;-74
2022/03/19 07:35:37;;;;;;;36.07;24.60;;;;;;;;;;5037850;28;20965;-74
2022/03/19 07:38:05;;;;;;;44.60;26.83;;;;;;;;;;5041992;28;20438;-75
2022/03/19 07:43:16;;;;;;;41.43;27.50;;;;;;;;;;5046232;28;20888;-74
2022/03/19 07:45:42;;;;;;;42.33;26.53;;;;;;;;;;5039170;28;20524;-75
2022/03/19 07:48:08;;;;;;;42.37;30.90;;;;;;;;;;5046760;28;20611;-76
2022/03/19 07:50:35;;;;;;;43.37;25.53;;;;;;;;;;5048281;28;20450;-75
2022/03/19 07:53:01;;;;;;;36.40;25.60;;;;;;;;;;5047818;28;20430;-75
2022/03/19 07:55:27;;;;;;;38.13;23.43;;;;;;;;;;5044230;28;20440;-76
2022/03/19 07:57:53;;;;;;;36.90;25.27;;;;;;;;;;5047861;28;20414;-75
2022/03/19 08:00:19;;;;;;;36.73;24.60;;;;;;;;;;5046866;28;20427;-76
2022/03/19 08:02:45;;;;;;;50.50;28.10;;;;;;;;;;5046086;28;20495;-75
2022/03/19 08:05:11;;;;;;;36.67;25.07;;;;;;;;;;5043592;28;20446;-75
2022/03/19 08:07:38;;;;;;;39.13;25.63;;;;;;;;;;5043615;28;20460;-75
2022/03/19 08:10:05;;;;;;;38.57;26.47;;;;;;;;;;5045319;28;20434;-75
2022/03/19 08:12:31;;;;;;;45.03;25.80;;;;;;;;;;5043650;28;20521;-75
2022/03/19 08:14:59;;;;;;;40.83;25.83;;;;;;;;;;5040261;28;20809;-76
2022/03/19 08:17:25;;;;;;;42.40;26.10;;;;;;;;;;5044139;28;20521;-75
2022/03/19 08:19:51;;;;;;;37.40;27.43;;;;;;;;;;5046842;28;20436;-73
2022/03/19 08:22:17;;;;;;;36.77;24.17;;;;;;;;;;5043339;28;20450;-74
2022/03/19 08:24:43;;;;;;;31.37;22.77;;;;;;;;;;5040903;28;20430;-74
2022/03/19 08:27:10;;;;;;;37.67;25.73;;;;;;;;;;5045880;28;20434;-74
2022/03/19 08:29:36;;;;;;;37.20;24.27;;;;;;;;;;5048616;28;20478;-75
2022/03/19 08:32:02;;;;;;;39.07;26.10;;;;;;;;;;5048737;28;20437;-75
2022/03/19 08:34:28;;;;;;;43.80;27.97;;;;;;;;;;5039420;28;20944;-74
2022/03/19 08:36:55;;;;;;;33.83;24.20;;;;;;;;;;5047906;28;20430;-74
2022/03/19 08:42:06;;;;;;;37.53;23.50;;;;;;;;;;5044907;28;20787;-74
2022/03/19 08:44:32;;;;;;;32.57;23.23;;;;;;;;;;5047458;28;20438;-75
2022/03/19 08:46:58;;;;;;;34.00;23.37;;;;;;;;;;5045240;28;20952;-74
2022/03/19 08:49:24;;;;;;;35.73;23.83;;;;;;;;;;5046865;28;20525;-74
2022/03/19 08:51:50;;;;;;;35.47;21.60;;;;;;;;;;5047941;28;20752;-74
2022/03/19 08:54:17;;;;;;;27.53;18.60;;;;;;;;;;5040871;28;20533;-75
2022/03/19 08:56:44;;;;;;;40.60;23.90;;;;;;;;;;5044986;28;20422;-75
2022/03/19 08:59:10;;;;;;;31.13;20.87;;;;;;;;;;5051898;28;20426;-76
2022/03/19 09:01:37;;;;;;;32.07;21.80;;;;;;;;;;5047911;28;20427;-78
2022/03/19 09:04:03;;;;;;;34.60;25.20;;;;;;;;;;5049403;28;20521;-75
2022/03/19 09:06:29;;;;;;;35.90;23.47;;;;;;;;;;5048163;28;20453;-76
2022/03/19 09:08:55;;;;;;;33.83;22.10;;;;;;;;;;5051628;28;20985;-75
2022/03/19 09:11:23;;;;;;;32.10;21.50;;;;;;;;;;5051737;28;20422;-76
2022/03/19 09:13:49;;;;;;;32.83;20.90;;;;;;;;;;5049988;28;20430;-75
2022/03/19 09:16:16;;;;;;;31.63;21.73;;;;;;;;;;5052501;28;20425;-75
2022/03/19 09:18:42;;;;;;;35.00;21.57;;;;;;;;;;5049498;28;21011;-74
2022/03/19 09:21:08;;;;;;;27.63;17.00;;;;;;;;;;5050935;28;20414;-74
2022/03/19 09:23:34;;;;;;;30.93;20.33;;;;;;;;;;5051192;28;20779;-73
2022/03/19 09:26:00;;;;;;;25.80;19.87;;;;;;;;;;5049673;28;21645;-72
2022/03/19 09:28:26;;;;;;;29.20;19.60;;;;;;;;;;5051896;28;20490;-72
2022/03/19 09:30:52;;;;;;;29.53;19.10;;;;;;;;;;5052037;28;20969;-73
2022/03/19 09:33:19;;;;;;;25.90;17.90;;;;;;;;;;5051346;28;20457;-73
2022/03/19 09:35:45;;;;;;;27.50;17.80;;;;;;;;;;5051544;28;20427;-73
2022/03/19 09:38:11;;;;;;;28.33;17.70;;;;;;;;;;5051596;28;20419;-73
2022/03/19 09:40:37;;;;;;;25.73;17.60;;;;;;;;;;5049924;28;20924;-73
2022/03/19 09:43:03;;;;;;;20.40;14.50;;;;;;;;;;5049487;28;20441;-74
2022/03/19 09:45:29;;;;;;;21.63;16.60;;;;;;;;;;5046048;28;20489;-73
2022/03/19 09:47:57;;;;;;;24.00;17.03;;;;;;;;;;5048320;28;20563;-74
2022/03/19 09:50:23;;;;;;;25.90;17.87;;;;;;;;;;5047633;28;20459;-73
2022/03/19 09:52:53;;;;;;;24.30;18.03;;;;;;;;;;5047318;28;20433;-67
2022/03/19 09:55:20;;;;;;;22.13;16.43;;;;;;;;;;5050020;28;20466;-73
2022/03/19 09:57:46;;;;;;;23.13;16.90;;;;;;;;;;5051643;28;20414;-73
2022/03/19 10:00:13;;;;;;;26.30;18.53;;;;;;;;;;5051351;28;21939;-73
2022/03/19 10:02:55;;;;;;;28.70;17.40;;;;;;;;;;5050782;28;20989;-73
2022/03/19 10:10:51;;;;;;;22.70;14.33;;;;;;;;;;5046695;28;20504;-75
2022/03/19 10:13:17;;;;;;;23.40;16.67;;;;;;;;;;5049315;28;20442;-74
2022/03/19 10:15:43;;;;;;;23.83;19.00;;;;;;;;;;5049749;28;20441;-73
2022/03/19 10:18:09;;;;;;;22.47;17.00;;;;;;;;;;5049257;28;20418;-74
2022/03/19 10:20:35;;;;;;;24.90;16.07;;;;;;;;;;5046325;28;20438;-73
2022/03/19 10:23:02;;;;;;;21.63;17.90;;;;;;;;;;5046485;28;20478;-73
2022/03/19 10:25:28;;;;;;;23.20;16.20;;;;;;;;;;5044921;28;20810;-74
2022/03/19 10:27:59;;;;;;;23.47;14.83;;;;;;;;;;5048679;28;20974;-73
2022/03/19 10:30:28;;;;;;;22.47;16.50;;;;;;;;;;5047848;28;20454;-73
2022/03/19 10:32:54;;;;;;;21.27;15.67;;;;;;;;;;5047989;28;20519;-78
2022/03/19 10:35:24;;;;;;;19.90;13.20;;;;;;;;;;5048265;28;20529;-76
2022/03/19 10:37:50;;;;;;;21.23;15.83;;;;;;;;;;5048370;28;20473;-75
2022/03/19 10:40:16;;;;;;;22.70;18.23;;;;;;;;;;5049774;28;20451;-74
2022/03/19 10:42:42;;;;;;;19.77;14.70;;;;;;;;;;5045818;28;21778;-74
2022/03/19 10:45:09;;;;;;;30.87;17.87;;;;;;;;;;5048003;28;20522;-74
2022/03/19 10:47:39;;;;;;;26.70;15.87;;;;;;;;;;5048449;28;20454;-74
2022/03/19 10:50:05;;;;;;;29.67;20.73;;;;;;;;;;5049849;28;20437;-74
2022/03/19 10:52:31;;;;;;;23.07;17.47;;;;;;;;;;5047685;28;20525;-75
2022/03/19 10:55:03;;;;;;;24.27;18.60;;;;;;;;;;5050308;28;20457;-73
2022/03/19 10:57:29;;;;;;;20.53;15.60;;;;;;;;;;5050579;28;20438;-73
2022/03/19 10:59:55;;;;;;;30.80;16.70;;;;;;;;;;5042231;28;20442;-74
2022/03/19 11:02:21;;;;;;;21.37;15.30;;;;;;;;;;5047419;28;20465;-73
2022/03/19 11:04:48;;;;;;;38.37;17.33;;;;;;;;;;5048500;28;20561;-73
2022/03/19 11:07:15;;;;;;;23.83;16.43;;;;;;;;;;5048568;28;20466;-73
2022/03/19 11:09:41;;;;;;;23.93;18.43;;;;;;;;;;5047833;28;20888;-73
2022/03/19 11:12:07;;;;;;;29.73;17.97;;;;;;;;;;5047163;28;20436;-73
2022/03/19 11:14:35;;;;;;;25.37;19.13;;;;;;;;;;5047220;28;20993;-73
2022/03/19 11:17:27;;;;;;;22.07;17.07;;;;;;;;;;5047371;28;20438;-73
2022/03/19 11:20:11;;;;;;;21.60;15.30;;;;;;;;;;5048099;28;20942;-73
2022/03/19 11:22:42;;;;;;;22.93;14.10;;;;;;;;;;5045705;28;20445;-73
2022/03/19 11:25:11;;;;;;;16.87;13.37;;;;;;;;;;5046790;28;20513;-74
2022/03/19 11:27:38;;;;;;;26.40;18.10;;;;;;;;;;5048767;28;20414;-73
2022/03/19 11:30:05;;;;;;;21.57;17.27;;;;;;;;;;5048954;28;20941;-74
2022/03/19 11:32:31;;;;;;;16.47;12.37;;;;;;;;;;5047276;28;20830;-74
2022/03/19 11:34:59;;;;;;;20.73;12.63;;;;;;;;;;5047833;28;20435;-74
2022/03/19 11:37:26;;;;;;;22.47;15.20;;;;;;;;;;5043745;28;20484;-73
2022/03/19 11:40:28;;;;;;;23.83;16.83;;;;;;;;;;5046752;28;20525;-73
2022/03/19 11:42:54;;;;;;;23.27;17.10;;;;;;;;;;5038821;28;20524;-73
2022/03/19 11:45:20;;;;;;;19.90;16.30;;;;;;;;;;5033828;28;20565;-73
2022/03/19 11:47:46;;;;;;;16.00;12.47;;;;;;;;;;5044435;28;20442;-73
2022/03/19 11:50:26;;;;;;;20.80;16.77;;;;;;;;;;5048426;28;20459;-73
2022/03/19 11:52:55;;;;;;;24.93;16.20;;;;;;;;;;5044890;28;20467;-73
2022/03/19 11:55:29;;;;;;;22.73;17.30;;;;;;;;;;5049228;28;20439;-73
2022/03/19 11:58:00;;;;;;;24.13;18.10;;;;;;;;;;5049555;28;20480;-73
2022/03/19 12:00:28;;;;;;;24.67;15.80;;;;;;;;;;5047160;28;20431;-73
2022/03/19 12:03:12;;;;;;;23.13;17.03;;;;;;;;;;5047489;28;20488;-73
2022/03/19 12:05:40;;;;;;;19.50;15.20;;;;;;;;;;5048650;28;20434;-73
2022/03/19 12:08:08;;;;;;;16.60;12.97;;;;;;;;;;5047308;28;20477;-73
2022/03/19 12:10:39;;;;;;;25.97;15.97;;;;;;;;;;5039948;28;20950;-73
2022/03/19 12:13:25;;;;;;;24.57;21.33;;;;;;;;;;5043302;28;20484;-73
2022/03/19 12:15:51;;;;;;;26.77;16.97;;;;;;;;;;5047189;28;20513;-73
2022/03/19 12:18:33;;;;;;;21.37;15.83;;;;;;;;;;5046429;28;20564;-73
2022/03/19 12:21:01;;;;;;;24.60;17.70;;;;;;;;;;5038908;28;21451;-73
2022/03/19 12:23:27;;;;;;;22.63;16.00;;;;;;;;;;5044579;28;20764;-73
2022/03/19 12:26:04;;;;;;;27.27;17.90;;;;;;;;;;5047649;28;20434;-73
2022/03/19 12:28:31;;;;;;;22.97;16.13;;;;;;;;;;5046566;28;20692;-73
2022/03/19 12:31:14;;;;;;;21.37;15.83;;;;;;;;;;5048524;28;20462;-73
2022/03/19 12:33:40;;;;;;;19.83;14.90;;;;;;;;;;5049803;28;20433;-72
2022/03/19 12:36:16;;;;;;;20.77;14.47;;;;;;;;;;5051483;28;20422;-73
2022/03/19 12:38:43;;;;;;;19.73;16.03;;;;;;;;;;5053177;28;20421;-73
2022/03/19 12:41:28;;;;;;;22.10;13.97;;;;;;;;;;5049051;28;20426;-73
2022/03/19 12:43:58;;;;;;;18.90;13.90;;;;;;;;;;5050656;28;20466;-73
2022/03/19 12:46:34;;;;;;;18.10;15.17;;;;;;;;;;5050243;28;20477;-73
2022/03/19 12:49:04;;;;;;;18.90;13.90;;;;;;;;;;5049713;28;20473;-73
2022/03/19 12:51:31;;;;;;;24.63;13.40;;;;;;;;;;5051868;28;20430;-73
2022/03/19 12:53:57;;;;;;;18.20;13.20;;;;;;;;;;5051571;28;20443;-73
2022/03/19 12:56:24;;;;;;;15.37;12.97;;;;;;;;;;5050393;28;20442;-73
2022/03/19 12:58:54;;;;;;;19.40;13.20;;;;;;;;;;5047953;28;20804;-72
2022/03/19 13:01:21;;;;;;;19.30;13.17;;;;;;;;;;5049835;28;20988;-72
2022/03/19 13:03:51;;;;;;;21.23;12.63;;;;;;;;;;5050079;28;20501;-73
2022/03/19 13:06:25;;;;;;;13.63;10.40;;;;;;;;;;5050775;28;20434;-72
2022/03/19 13:08:51;;;;;;;16.20;13.57;;;;;;;;;;5051414;28;20486;-73
2022/03/19 13:11:18;;;;;;;18.05;13.98;;;;;;;;;;5051055;28;20927;-73
2022/03/19 13:13:45;;;;;;;23.33;14.33;;;;;;;;;;5048909;28;20172;-73
2022/03/19 13:16:12;;;;;;;15.97;12.40;;;;;;;;;;5052023;28;20521;-73
2022/03/19 13:18:41;;;;;;;16.07;11.40;;;;;;;;;;5050173;28;20914;-73
2022/03/19 13:21:09;;;;;;;20.73;13.93;;;;;;;;;;5049268;28;20930;-73
2022/03/19 13:23:35;;;;;;;15.50;11.30;;;;;;;;;;5050236;28;21108;-73
2022/03/19 13:26:02;;;;;;;18.93;13.13;;;;;;;;;;5051921;28;20441;-72
2022/03/19 13:28:28;;;;;;;13.77;10.67;;;;;;;;;;5051054;28;20883;-73
2022/03/19 13:30:58;;;;;;;18.33;14.00;;;;;;;;;;5050750;28;20459;-73
2022/03/19 13:33:27;;;;;;;13.00;10.83;;;;;;;;;;5050128;28;20576;-72
2022/03/19 13:35:53;;;;;;;15.70;12.63;;;;;;;;;;5050521;28;20442;-73
2022/03/19 13:38:20;;;;;;;18.47;12.10;;;;;;;;;;5051928;28;20450;-73
2022/03/19 13:40:50;;;;;;;15.30;12.17;;;;;;;;;;5051994;28;20431;-72
2022/03/19 13:43:17;;;;;;;18.00;13.43;;;;;;;;;;5050323;28;20943;-72
2022/03/19 13:45:43;;;;;;;16.93;11.80;;;;;;;;;;5048839;28;20466;-72
2022/03/19 13:48:09;;;;;;;16.33;12.37;;;;;;;;;;5051155;28;20465;-73
2022/03/19 13:50:38;;;;;;;16.10;11.10;;;;;;;;;;5050863;28;21470;-73
2022/03/19 13:53:04;;;;;;;17.93;12.37;;;;;;;;;;5048523;28;20445;-72
2022/03/19 13:55:30;;;;;;;19.63;11.73;;;;;;;;;;5051455;28;20460;-72
2022/03/19 13:58:01;;;;;;;12.70;10.07;;;;;;;;;;5050060;28;20930;-72
2022/03/19 14:00:28;;;;;;;10.67;9.33;;;;;;;;;;5049950;28;20472;-73
2022/03/19 14:02:55;;;;;;;14.43;11.47;;;;;;;;;;5050146;28;20442;-73
2022/03/19 14:05:24;;;;;;;20.43;9.93;;;;;;;;;;5050108;28;20964;-73
2022/03/19 14:07:50;;;;;;;19.00;11.80;;;;;;;;;;5050284;28;20957;-72
2022/03/19 14:10:16;;;;;;;17.73;12.43;;;;;;;;;;5050645;28;20484;-73
2022/03/19 14:12:43;;;;;;;22.57;10.33;;;;;;;;;;5051012;28;20433;-73
2022/03/19 14:15:14;;;;;;;10.47;8.53;;;;;;;;;;5050105;28;20431;-72
2022/03/19 14:17:48;;;;;;;15.13;9.20;;;;;;;;;;5047744;28;20480;-72
2022/03/19 14:20:14;;;;;;;8.53;6.60;;;;;;;;;;5050270;28;20796;-72
2022/03/19 14:22:40;;;;;;;12.80;8.60;;;;;;;;;;5049352;28;20434;-72
2022/03/19 14:25:06;;;;;;;14.10;10.47;;;;;;;;;;5048055;28;20442;-72
2022/03/19 14:27:32;;;;;;;21.43;8.80;;;;;;;;;;5049688;28;20783;-73
2022/03/19 14:29:59;;;;;;;9.50;7.93;;;;;;;;;;5049506;28;20482;-72
2022/03/19 14:32:25;;;;;;;30.87;10.37;;;;;;;;;;5049583;28;20426;-72
2022/03/19 14:34:51;;;;;;;13.33;9.53;;;;;;;;;;5051120;28;20449;-72